Terminal Aerodrome Forecast
Issued by NWS Dallas/Fort Worth, TX

Home | Current Version | Previous Version | Text Only | Print | Product List | Glossary On
Versions: 1 2 3 4 5 6 7 8 9 10 11 12 13 14 15 16 17 18 19 20 21 22 23 24 25 26
000
FTUS44 KFWD 221137
TAFDFW
TAF
KDFW 221137Z 2212/2318 26015KT P6SM FEW025 SCT250
     FM221400 32023KT P6SM SCT025
      TEMPO 2214/2216 BKN025
     FM221700 33024G34KT P6SM FEW025
     FM230100 32015KT P6SM SKC
     FM231500 20005KT P6SM SKC=

USA.gov is the U.S. government's official web portal to all federal, state and local government web resources and services.